sensor_id;sensor_type;location;lat;lon;timestamp;temperature;humidity
75489;HTU21D;64069;46.396;48.102;2024-03-29T00:00:56;3.72;62.18
75489;HTU21D;64069;46.396;48.102;2024-03-29T00:03:22;3.71;62.24
75489;HTU21D;64069;46.396;48.102;2024-03-29T00:05:48;3.67;62.31
75489;HTU21D;64069;46.396;48.102;2024-03-29T00:08:14;3.64;62.45
75489;HTU21D;64069;46.396;48.102;2024-03-29T00:10:40;3.60;62.58
75489;HTU21D;64069;46.396;48.102;2024-03-29T00:13:06;3.55;62.53
75489;HTU21D;64069;46.396;48.102;2024-03-29T00:15:32;3.49;62.73
75489;HTU21D;64069;46.396;48.102;2024-03-29T00:17:58;3.47;62.82
75489;HTU21D;64069;46.396;48.102;2024-03-29T00:20:24;3.48;63.05
75489;HTU21D;64069;46.396;48.102;2024-03-29T00:22:51;3.45;62.94
75489;HTU21D;64069;46.396;48.102;2024-03-29T00:25:17;3.41;63.14
75489;HTU21D;64069;46.396;48.102;2024-03-29T00:27:43;3.35;63.34
75489;HTU21D;64069;46.396;48.102;2024-03-29T00:30:10;3.30;63.47
75489;HTU21D;64069;46.396;48.102;2024-03-29T00:32:36;3.26;63.73
75489;HTU21D;64069;46.396;48.102;2024-03-29T00:35:02;3.21;63.87
75489;HTU21D;64069;46.396;48.102;2024-03-29T00:37:28;3.14;63.83
75489;HTU21D;64069;46.396;48.102;2024-03-29T00:39:54;3.05;63.90
75489;HTU21D;64069;46.396;48.102;2024-03-29T00:42:20;2.95;63.95
75489;HTU21D;64069;46.396;48.102;2024-03-29T00:44:47;2.80;64.14
75489;HTU21D;64069;46.396;48.102;2024-03-29T00:47:13;2.64;64.37
75489;HTU21D;64069;46.396;48.102;2024-03-29T00:49:39;2.47;64.64
75489;HTU21D;64069;46.396;48.102;2024-03-29T00:52:05;2.32;64.87
75489;HTU21D;64069;46.396;48.102;2024-03-29T00:54:31;2.20;65.06
75489;HTU21D;64069;46.396;48.102;2024-03-29T00:56:57;2.07;65.24
75489;HTU21D;64069;46.396;48.102;2024-03-29T00:59:23;1.96;65.40
75489;HTU21D;64069;46.396;48.102;2024-03-29T01:01:50;1.87;65.54
75489;HTU21D;64069;46.396;48.102;2024-03-29T01:04:17;1.80;65.62
75489;HTU21D;64069;46.396;48.102;2024-03-29T01:06:43;1.71;65.71
75489;HTU21D;64069;46.396;48.102;2024-03-29T01:09:09;1.61;65.91
75489;HTU21D;64069;46.396;48.102;2024-03-29T01:11:39;1.51;66.10
75489;HTU21D;64069;46.396;48.102;2024-03-29T01:14:05;1.39;66.30
75489;HTU21D;64069;46.396;48.102;2024-03-29T01:16:31;1.28;66.47
75489;HTU21D;64069;46.396;48.102;2024-03-29T01:18:58;1.19;66.64
75489;HTU21D;64069;46.396;48.102;2024-03-29T01:21:26;1.10;66.81
75489;HTU21D;64069;46.396;48.102;2024-03-29T01:23:52;1.03;66.94
75489;HTU21D;64069;46.396;48.102;2024-03-29T01:26:18;0.96;67.07
75489;HTU21D;64069;46.396;48.102;2024-03-29T01:28:44;0.91;67.16
75489;HTU21D;64069;46.396;48.102;2024-03-29T01:31:11;0.89;67.26
75489;HTU21D;64069;46.396;48.102;2024-03-29T01:33:40;0.81;67.39
75489;HTU21D;64069;46.396;48.102;2024-03-29T01:36:07;0.75;67.60
75489;HTU21D;64069;46.396;48.102;2024-03-29T01:38:34;0.69;67.74
75489;HTU21D;64069;46.396;48.102;2024-03-29T01:41:00;0.61;67.94
75489;HTU21D;64069;46.396;48.102;2024-03-29T01:43:26;0.53;68.10
75489;HTU21D;64069;46.396;48.102;2024-03-29T01:45:55;0.52;68.18
75489;HTU21D;64069;46.396;48.102;2024-03-29T01:48:26;0.47;68.30
75489;HTU21D;64069;46.396;48.102;2024-03-29T01:50:56;0.38;68.48
75489;HTU21D;64069;46.396;48.102;2024-03-29T01:53:23;0.31;68.60
75489;HTU21D;64069;46.396;48.102;2024-03-29T01:55:50;0.28;68.69
75489;HTU21D;64069;46.396;48.102;2024-03-29T01:58:18;0.31;68.73
75489;HTU21D;64069;46.396;48.102;2024-03-29T02:00:52;0.30;68.78
75489;HTU21D;64069;46.396;48.102;2024-03-29T02:03:20;0.23;68.87
75489;HTU21D;64069;46.396;48.102;2024-03-29T02:05:49;0.20;69.04
75489;HTU21D;64069;46.396;48.102;2024-03-29T02:08:16;0.17;69.09
75489;HTU21D;64069;46.396;48.102;2024-03-29T02:10:43;0.16;69.22
75489;HTU21D;64069;46.396;48.102;2024-03-29T02:13:11;0.20;69.26
75489;HTU21D;64069;46.396;48.102;2024-03-29T02:15:39;0.25;69.19
75489;HTU21D;64069;46.396;48.102;2024-03-29T02:18:06;0.25;69.21
75489;HTU21D;64069;46.396;48.102;2024-03-29T02:20:33;0.21;69.33
75489;HTU21D;64069;46.396;48.102;2024-03-29T02:23:14;0.16;69.73
75489;HTU21D;64069;46.396;48.102;2024-03-29T02:25:41;0.12;69.61
75489;HTU21D;64069;46.396;48.102;2024-03-29T02:28:07;0.06;69.80
75489;HTU21D;64069;46.396;48.102;2024-03-29T02:30:33;-0.00;70.08
75489;HTU21D;64069;46.396;48.102;2024-03-29T02:33:00;-0.09;70.31
75489;HTU21D;64069;46.396;48.102;2024-03-29T02:35:26;-0.12;70.59
75489;HTU21D;64069;46.396;48.102;2024-03-29T02:37:52;-0.16;70.77
75489;HTU21D;64069;46.396;48.102;2024-03-29T02:40:19;-0.22;70.93
75489;HTU21D;64069;46.396;48.102;2024-03-29T02:42:47;-0.25;71.04
75489;HTU21D;64069;46.396;48.102;2024-03-29T02:45:13;-0.24;71.22
75489;HTU21D;64069;46.396;48.102;2024-03-29T02:47:39;-0.24;71.23
75489;HTU21D;64069;46.396;48.102;2024-03-29T02:50:08;-0.20;71.19
75489;HTU21D;64069;46.396;48.102;2024-03-29T02:52:34;-0.08;71.16
75489;HTU21D;64069;46.396;48.102;2024-03-29T02:55:00;0.05;70.99
75489;HTU21D;64069;46.396;48.102;2024-03-29T02:57:26;0.16;70.88
75489;HTU21D;64069;46.396;48.102;2024-03-29T02:59:52;0.28;70.82
75489;HTU21D;64069;46.396;48.102;2024-03-29T03:02:18;0.43;70.77
75489;HTU21D;64069;46.396;48.102;2024-03-29T03:04:44;0.61;70.66
75489;HTU21D;64069;46.396;48.102;2024-03-29T03:07:10;0.87;70.50
75489;HTU21D;64069;46.396;48.102;2024-03-29T03:09:54;1.24;70.10
75489;HTU21D;64069;46.396;48.102;2024-03-29T03:12:39;1.61;69.55
75489;HTU21D;64069;46.396;48.102;2024-03-29T03:15:05;1.93;69.14
75489;HTU21D;64069;46.396;48.102;2024-03-29T03:17:31;2.26;68.84
75489;HTU21D;64069;46.396;48.102;2024-03-29T03:19:57;2.57;68.51
75489;HTU21D;64069;46.396;48.102;2024-03-29T03:22:24;2.84;68.26
75489;HTU21D;64069;46.396;48.102;2024-03-29T03:24:50;3.03;68.20
75489;HTU21D;64069;46.396;48.102;2024-03-29T03:27:16;3.20;68.31
75489;HTU21D;64069;46.396;48.102;2024-03-29T03:29:42;3.52;68.26
75489;HTU21D;64069;46.396;48.102;2024-03-29T03:32:08;3.91;67.93
75489;HTU21D;64069;46.396;48.102;2024-03-29T03:34:34;4.31;67.47
75489;HTU21D;64069;46.396;48.102;2024-03-29T03:37:01;4.57;67.10
75489;HTU21D;64069;46.396;48.102;2024-03-29T03:39:27;4.79;67.01
75489;HTU21D;64069;46.396;48.102;2024-03-29T03:41:53;4.94;66.80
75489;HTU21D;64069;46.396;48.102;2024-03-29T03:44:19;5.10;66.94
75489;HTU21D;64069;46.396;48.102;2024-03-29T03:46:47;5.45;66.61
75489;HTU21D;64069;46.396;48.102;2024-03-29T03:49:13;5.66;66.23
75489;HTU21D;64069;46.396;48.102;2024-03-29T03:51:39;5.81;66.01
75489;HTU21D;64069;46.396;48.102;2024-03-29T03:54:05;5.92;65.91
75489;HTU21D;64069;46.396;48.102;2024-03-29T03:56:31;6.13;65.86
75489;HTU21D;64069;46.396;48.102;2024-03-29T03:58:57;6.50;65.43
75489;HTU21D;64069;46.396;48.102;2024-03-29T04:01:23;6.87;64.88
75489;HTU21D;64069;46.396;48.102;2024-03-29T04:03:49;7.27;64.33
75489;HTU21D;64069;46.396;48.102;2024-03-29T04:06:15;7.70;63.65
75489;HTU21D;64069;46.396;48.102;2024-03-29T04:08:44;8.01;63.04
75489;HTU21D;64069;46.396;48.102;2024-03-29T04:11:10;8.22;62.47
75489;HTU21D;64069;46.396;48.102;2024-03-29T04:13:36;8.36;62.10
75489;HTU21D;64069;46.396;48.102;2024-03-29T04:16:06;8.56;61.83
75489;HTU21D;64069;46.396;48.102;2024-03-29T04:18:33;8.87;61.39
75489;HTU21D;64069;46.396;48.102;2024-03-29T04:21:00;9.23;60.73
75489;HTU21D;64069;46.396;48.102;2024-03-29T04:23:26;9.57;60.03
75489;HTU21D;64069;46.396;48.102;2024-03-29T04:25:56;9.80;59.44
75489;HTU21D;64069;46.396;48.102;2024-03-29T04:28:22;9.98;59.14
75489;HTU21D;64069;46.396;48.102;2024-03-29T04:30:59;10.15;58.28
75489;HTU21D;64069;46.396;48.102;2024-03-29T04:33:25;10.16;58.13
75489;HTU21D;64069;46.396;48.102;2024-03-29T04:36:02;10.15;57.72
75489;HTU21D;64069;46.396;48.102;2024-03-29T04:38:29;10.23;57.61
75489;HTU21D;64069;46.396;48.102;2024-03-29T04:40:57;10.52;56.99
75489;HTU21D;64069;46.396;48.102;2024-03-29T04:43:25;10.84;56.03
75489;HTU21D;64069;46.396;48.102;2024-03-29T04:46:06;11.10;54.91
75489;HTU21D;64069;46.396;48.102;2024-03-29T04:48:36;11.29;54.45
75489;HTU21D;64069;46.396;48.102;2024-03-29T04:51:02;11.38;53.81
75489;HTU21D;64069;46.396;48.102;2024-03-29T04:53:28;11.45;53.36
75489;HTU21D;64069;46.396;48.102;2024-03-29T04:55:55;11.49;52.96
75489;HTU21D;64069;46.396;48.102;2024-03-29T04:58:31;11.63;52.63
75489;HTU21D;64069;46.396;48.102;2024-03-29T05:00:57;11.70;52.33
75489;HTU21D;64069;46.396;48.102;2024-03-29T05:03:23;11.67;52.00
75489;HTU21D;64069;46.396;48.102;2024-03-29T05:05:50;11.71;51.47
75489;HTU21D;64069;46.396;48.102;2024-03-29T05:08:17;11.75;51.39
75489;HTU21D;64069;46.396;48.102;2024-03-29T05:10:47;12.00;50.82
75489;HTU21D;64069;46.396;48.102;2024-03-29T05:13:13;12.21;50.47
75489;HTU21D;64069;46.396;48.102;2024-03-29T05:15:39;12.48;49.74
75489;HTU21D;64069;46.396;48.102;2024-03-29T05:18:05;12.72;49.46
75489;HTU21D;64069;46.396;48.102;2024-03-29T05:20:31;12.95;49.13
75489;HTU21D;64069;46.396;48.102;2024-03-29T05:22:58;13.03;48.52
75489;HTU21D;64069;46.396;48.102;2024-03-29T05:25:25;13.20;48.17
75489;HTU21D;64069;46.396;48.102;2024-03-29T05:27:52;13.32;47.91
75489;HTU21D;64069;46.396;48.102;2024-03-29T05:30:18;13.48;47.66
75489;HTU21D;64069;46.396;48.102;2024-03-29T05:32:44;13.66;47.18
75489;HTU21D;64069;46.396;48.102;2024-03-29T05:35:10;13.80;46.55
75489;HTU21D;64069;46.396;48.102;2024-03-29T05:37:36;13.89;46.37
75489;HTU21D;64069;46.396;48.102;2024-03-29T05:40:04;13.92;46.12
75489;HTU21D;64069;46.396;48.102;2024-03-29T05:42:33;13.91;46.04
75489;HTU21D;64069;46.396;48.102;2024-03-29T05:45:00;13.85;45.61
75489;HTU21D;64069;46.396;48.102;2024-03-29T05:47:26;13.88;45.09
75489;HTU21D;64069;46.396;48.102;2024-03-29T05:49:53;13.94;44.87
75489;HTU21D;64069;46.396;48.102;2024-03-29T05:52:19;14.05;44.57
75489;HTU21D;64069;46.396;48.102;2024-03-29T05:54:46;14.17;44.28
75489;HTU21D;64069;46.396;48.102;2024-03-29T05:57:12;14.35;43.90
75489;HTU21D;64069;46.396;48.102;2024-03-29T05:59:38;14.49;43.61
75489;HTU21D;64069;46.396;48.102;2024-03-29T06:02:05;14.63;43.31
75489;HTU21D;64069;46.396;48.102;2024-03-29T06:04:31;14.75;42.77
75489;HTU21D;64069;46.396;48.102;2024-03-29T06:07:01;14.81;42.55
75489;HTU21D;64069;46.396;48.102;2024-03-29T06:09:27;14.95;42.37
75489;HTU21D;64069;46.396;48.102;2024-03-29T06:11:54;15.15;41.62
75489;HTU21D;64069;46.396;48.102;2024-03-29T06:14:22;15.30;41.04
75489;HTU21D;64069;46.396;48.102;2024-03-29T06:17:07;15.24;40.87
75489;HTU21D;64069;46.396;48.102;2024-03-29T06:19:51;15.26;41.06
75489;HTU21D;64069;46.396;48.102;2024-03-29T06:22:19;15.38;40.93
75489;HTU21D;64069;46.396;48.102;2024-03-29T06:24:46;15.48;40.56
75489;HTU21D;64069;46.396;48.102;2024-03-29T06:27:13;15.56;40.22
75489;HTU21D;64069;46.396;48.102;2024-03-29T06:29:43;15.58;40.05
75489;HTU21D;64069;46.396;48.102;2024-03-29T06:32:09;15.67;39.81
75489;HTU21D;64069;46.396;48.102;2024-03-29T06:34:35;15.63;39.88
75489;HTU21D;64069;46.396;48.102;2024-03-29T06:37:02;15.71;39.55
75489;HTU21D;64069;46.396;48.102;2024-03-29T06:39:28;15.77;39.02
75489;HTU21D;64069;46.396;48.102;2024-03-29T06:41:54;15.74;38.50
75489;HTU21D;64069;46.396;48.102;2024-03-29T06:44:20;15.71;38.54
75489;HTU21D;64069;46.396;48.102;2024-03-29T06:46:47;15.69;37.94
75489;HTU21D;64069;46.396;48.102;2024-03-29T06:49:13;15.65;37.83
75489;HTU21D;64069;46.396;48.102;2024-03-29T06:51:39;15.71;37.71
75489;HTU21D;64069;46.396;48.102;2024-03-29T06:54:09;15.75;37.65
75489;HTU21D;64069;46.396;48.102;2024-03-29T06:56:35;15.77;37.47
75489;HTU21D;64069;46.396;48.102;2024-03-29T06:59:01;15.81;37.21
75489;HTU21D;64069;46.396;48.102;2024-03-29T07:01:27;15.88;36.81
75489;HTU21D;64069;46.396;48.102;2024-03-29T07:03:53;15.82;36.18
75489;HTU21D;64069;46.396;48.102;2024-03-29T07:06:19;15.67;36.57
75489;HTU21D;64069;46.396;48.102;2024-03-29T07:08:45;15.81;36.48
75489;HTU21D;64069;46.396;48.102;2024-03-29T07:11:13;15.88;35.62
75489;HTU21D;64069;46.396;48.102;2024-03-29T07:13:38;15.67;35.48
75489;HTU21D;64069;46.396;48.102;2024-03-29T07:16:05;15.58;35.40
75489;HTU21D;64069;46.396;48.102;2024-03-29T07:18:32;15.68;35.44
75489;HTU21D;64069;46.396;48.102;2024-03-29T07:20:58;15.84;35.25
75489;HTU21D;64069;46.396;48.102;2024-03-29T07:23:24;16.00;34.95
75489;HTU21D;64069;46.396;48.102;2024-03-29T07:26:04;16.07;34.36
75489;HTU21D;64069;46.396;48.102;2024-03-29T07:28:30;16.04;34.31
75489;HTU21D;64069;46.396;48.102;2024-03-29T07:30:57;16.05;34.12
75489;HTU21D;64069;46.396;48.102;2024-03-29T07:33:24;16.15;33.74
75489;HTU21D;64069;46.396;48.102;2024-03-29T07:35:54;16.03;33.13
75489;HTU21D;64069;46.396;48.102;2024-03-29T07:38:23;16.13;32.65
75489;HTU21D;64069;46.396;48.102;2024-03-29T07:40:50;16.20;32.35
75489;HTU21D;64069;46.396;48.102;2024-03-29T07:43:18;16.15;32.36
75489;HTU21D;64069;46.396;48.102;2024-03-29T07:45:43;16.22;32.27
75489;HTU21D;64069;46.396;48.102;2024-03-29T07:48:13;16.41;32.09
75489;HTU21D;64069;46.396;48.102;2024-03-29T07:50:40;16.56;31.87
75489;HTU21D;64069;46.396;48.102;2024-03-29T07:53:06;16.67;31.73
75489;HTU21D;64069;46.396;48.102;2024-03-29T07:55:32;16.75;31.70
75489;HTU21D;64069;46.396;48.102;2024-03-29T07:57:58;16.86;31.59
75489;HTU21D;64069;46.396;48.102;2024-03-29T08:00:25;16.79;30.99
75489;HTU21D;64069;46.396;48.102;2024-03-29T08:02:53;16.74;30.77
75489;HTU21D;64069;46.396;48.102;2024-03-29T08:05:22;16.69;30.85
75489;HTU21D;64069;46.396;48.102;2024-03-29T08:07:48;16.86;30.49
75489;HTU21D;64069;46.396;48.102;2024-03-29T08:10:14;16.73;29.87
75489;HTU21D;64069;46.396;48.102;2024-03-29T08:12:40;16.49;29.77
75489;HTU21D;64069;46.396;48.102;2024-03-29T08:15:06;16.48;29.66
75489;HTU21D;64069;46.396;48.102;2024-03-29T08:17:34;16.43;29.15
75489;HTU21D;64069;46.396;48.102;2024-03-29T08:20:00;16.54;29.12
75489;HTU21D;64069;46.396;48.102;2024-03-29T08:22:27;16.58;28.83
75489;HTU21D;64069;46.396;48.102;2024-03-29T08:24:54;16.64;28.65
75489;HTU21D;64069;46.396;48.102;2024-03-29T08:27:20;16.61;28.68
75489;HTU21D;64069;46.396;48.102;2024-03-29T08:29:46;16.24;28.10
75489;HTU21D;64069;46.396;48.102;2024-03-29T08:32:15;16.08;28.62
75489;HTU21D;64069;46.396;48.102;2024-03-29T08:34:41;16.21;28.51
75489;HTU21D;64069;46.396;48.102;2024-03-29T08:37:08;16.45;28.29
75489;HTU21D;64069;46.396;48.102;2024-03-29T08:39:34;16.55;28.25
75489;HTU21D;64069;46.396;48.102;2024-03-29T08:42:01;16.50;27.87
75489;HTU21D;64069;46.396;48.102;2024-03-29T08:44:33;16.16;28.07
75489;HTU21D;64069;46.396;48.102;2024-03-29T08:46:59;16.08;28.09
75489;HTU21D;64069;46.396;48.102;2024-03-29T08:49:29;16.10;28.03
75489;HTU21D;64069;46.396;48.102;2024-03-29T08:51:56;16.07;27.33
75489;HTU21D;64069;46.396;48.102;2024-03-29T08:54:24;15.99;27.57
75489;HTU21D;64069;46.396;48.102;2024-03-29T08:56:56;16.17;27.25
75489;HTU21D;64069;46.396;48.102;2024-03-29T08:59:22;16.21;26.67
75489;HTU21D;64069;46.396;48.102;2024-03-29T09:01:48;16.30;26.78
75489;HTU21D;64069;46.396;48.102;2024-03-29T09:04:15;16.46;26.47
75489;HTU21D;64069;46.396;48.102;2024-03-29T09:06:42;16.45;26.08
75489;HTU21D;64069;46.396;48.102;2024-03-29T09:09:08;16.50;25.81
75489;HTU21D;64069;46.396;48.102;2024-03-29T09:11:35;16.69;25.13
75489;HTU21D;64069;46.396;48.102;2024-03-29T09:14:01;16.81;25.30
75489;HTU21D;64069;46.396;48.102;2024-03-29T09:16:28;17.11;25.81
75489;HTU21D;64069;46.396;48.102;2024-03-29T09:18:56;17.38;25.79
75489;HTU21D;64069;46.396;48.102;2024-03-29T09:21:22;17.46;25.94
75489;HTU21D;64069;46.396;48.102;2024-03-29T09:23:48;17.46;26.11
75489;HTU21D;64069;46.396;48.102;2024-03-29T09:26:18;17.46;25.93
75489;HTU21D;64069;46.396;48.102;2024-03-29T09:28:47;17.53;26.08
75489;HTU21D;64069;46.396;48.102;2024-03-29T09:31:13;17.62;25.85
75489;HTU21D;64069;46.396;48.102;2024-03-29T09:33:39;17.58;25.36
75489;HTU21D;64069;46.396;48.102;2024-03-29T09:36:06;17.49;25.23
75489;HTU21D;64069;46.396;48.102;2024-03-29T09:38:32;17.72;25.23
75489;HTU21D;64069;46.396;48.102;2024-03-29T09:41:14;17.90;24.79
75489;HTU21D;64069;46.396;48.102;2024-03-29T09:43:44;17.95;25.94
75489;HTU21D;64069;46.396;48.102;2024-03-29T09:46:16;18.15;25.04
75489;HTU21D;64069;46.396;48.102;2024-03-29T09:48:43;18.34;24.69
75489;HTU21D;64069;46.396;48.102;2024-03-29T09:51:12;18.42;24.46
75489;HTU21D;64069;46.396;48.102;2024-03-29T09:53:42;18.53;24.33
75489;HTU21D;64069;46.396;48.102;2024-03-29T09:56:09;18.50;23.45
75489;HTU21D;64069;46.396;48.102;2024-03-29T09:58:37;18.42;23.47
75489;HTU21D;64069;46.396;48.102;2024-03-29T10:01:05;18.28;23.43
75489;HTU21D;64069;46.396;48.102;2024-03-29T10:03:33;18.21;23.24
75489;HTU21D;64069;46.396;48.102;2024-03-29T10:06:01;18.18;22.92
75489;HTU21D;64069;46.396;48.102;2024-03-29T10:08:28;17.90;22.81
75489;HTU21D;64069;46.396;48.102;2024-03-29T10:10:58;17.77;23.18
75489;HTU21D;64069;46.396;48.102;2024-03-29T10:13:24;17.66;23.10
75489;HTU21D;64069;46.396;48.102;2024-03-29T10:15:53;17.74;23.07
75489;HTU21D;64069;46.396;48.102;2024-03-29T10:18:26;17.78;23.08
75489;HTU21D;64069;46.396;48.102;2024-03-29T10:21:00;17.58;23.16
75489;HTU21D;64069;46.396;48.102;2024-03-29T10:23:30;17.21;23.15
75489;HTU21D;64069;46.396;48.102;2024-03-29T10:25:57;16.81;23.64
75489;HTU21D;64069;46.396;48.102;2024-03-29T10:28:27;16.62;23.89
75489;HTU21D;64069;46.396;48.102;2024-03-29T10:30:55;16.70;24.72
75489;HTU21D;64069;46.396;48.102;2024-03-29T10:33:21;16.85;24.01
75489;HTU21D;64069;46.396;48.102;2024-03-29T10:35:47;16.81;23.73
75489;HTU21D;64069;46.396;48.102;2024-03-29T10:38:13;17.01;23.79
75489;HTU21D;64069;46.396;48.102;2024-03-29T10:40:40;17.17;23.84
75489;HTU21D;64069;46.396;48.102;2024-03-29T10:43:11;17.26;23.50
75489;HTU21D;64069;46.396;48.102;2024-03-29T10:45:48;17.03;23.11
75489;HTU21D;64069;46.396;48.102;2024-03-29T10:48:21;16.62;23.56
75489;HTU21D;64069;46.396;48.102;2024-03-29T10:50:48;16.35;23.64
75489;HTU21D;64069;46.396;48.102;2024-03-29T10:53:17;16.17;23.79
75489;HTU21D;64069;46.396;48.102;2024-03-29T10:55:43;16.13;23.54
75489;HTU21D;64069;46.396;48.102;2024-03-29T10:58:11;16.05;23.24
75489;HTU21D;64069;46.396;48.102;2024-03-29T11:00:47;16.03;23.20
75489;HTU21D;64069;46.396;48.102;2024-03-29T11:03:20;16.17;23.49
75489;HTU21D;64069;46.396;48.102;2024-03-29T11:05:55;16.41;23.17
75489;HTU21D;64069;46.396;48.102;2024-03-29T11:08:27;16.60;23.05
75489;HTU21D;64069;46.396;48.102;2024-03-29T11:10:58;16.74;22.95
75489;HTU21D;64069;46.396;48.102;2024-03-29T11:16:01;16.54;23.09
75489;HTU21D;64069;46.396;48.102;2024-03-29T11:18:28;16.57;22.91
75489;HTU21D;64069;46.396;48.102;2024-03-29T11:20:56;16.63;22.85
75489;HTU21D;64069;46.396;48.102;2024-03-29T11:23:22;16.66;22.66
75489;HTU21D;64069;46.396;48.102;2024-03-29T11:25:53;16.72;22.69
75489;HTU21D;64069;46.396;48.102;2024-03-29T11:28:34;16.73;22.46
75489;HTU21D;64069;46.396;48.102;2024-03-29T11:31:06;16.76;22.51
75489;HTU21D;64069;46.396;48.102;2024-03-29T11:38:39;16.96;22.66
75489;HTU21D;64069;46.396;48.102;2024-03-29T11:41:07;17.07;22.72
75489;HTU21D;64069;46.396;48.102;2024-03-29T11:43:34;17.04;22.40
75489;HTU21D;64069;46.396;48.102;2024-03-29T11:46:02;17.09;22.46
75489;HTU21D;64069;46.396;48.102;2024-03-29T11:48:29;17.14;22.23
75489;HTU21D;64069;46.396;48.102;2024-03-29T11:50:59;17.06;22.16
75489;HTU21D;64069;46.396;48.102;2024-03-29T11:53:26;17.19;22.34
75489;HTU21D;64069;46.396;48.102;2024-03-29T11:55:57;17.32;22.21
75489;HTU21D;64069;46.396;48.102;2024-03-29T11:58:25;17.36;22.00
75489;HTU21D;64069;46.396;48.102;2024-03-29T12:00:53;17.36;22.11
75489;HTU21D;64069;46.396;48.102;2024-03-29T12:03:20;17.37;22.14
75489;HTU21D;64069;46.396;48.102;2024-03-29T12:05:50;17.43;22.33
75489;HTU21D;64069;46.396;48.102;2024-03-29T12:08:17;17.50;21.93
75489;HTU21D;64069;46.396;48.102;2024-03-29T12:10:43;17.45;21.65
75489;HTU21D;64069;46.396;48.102;2024-03-29T12:13:10;17.49;21.53
75489;HTU21D;64069;46.396;48.102;2024-03-29T12:15:36;17.45;21.58
75489;HTU21D;64069;46.396;48.102;2024-03-29T12:18:04;17.34;21.57
75489;HTU21D;64069;46.396;48.102;2024-03-29T12:20:35;17.21;21.73
75489;HTU21D;64069;46.396;48.102;2024-03-29T12:23:06;17.15;22.02
75489;HTU21D;64069;46.396;48.102;2024-03-29T12:25:33;17.14;22.11
75489;HTU21D;64069;46.396;48.102;2024-03-29T12:28:00;17.13;22.17
75489;HTU21D;64069;46.396;48.102;2024-03-29T12:30:27;17.08;22.03
75489;HTU21D;64069;46.396;48.102;2024-03-29T12:33:20;16.99;22.34
75489;HTU21D;64069;46.396;48.102;2024-03-29T12:35:52;16.94;22.29
75489;HTU21D;64069;46.396;48.102;2024-03-29T12:38:21;16.87;22.57
75489;HTU21D;64069;46.396;48.102;2024-03-29T12:40:48;16.77;22.31
75489;HTU21D;64069;46.396;48.102;2024-03-29T12:43:19;16.65;22.63
75489;HTU21D;64069;46.396;48.102;2024-03-29T12:45:46;16.57;23.05
75489;HTU21D;64069;46.396;48.102;2024-03-29T12:48:17;16.49;23.36
75489;HTU21D;64069;46.396;48.102;2024-03-29T12:50:47;16.43;23.51
75489;HTU21D;64069;46.396;48.102;2024-03-29T12:53:14;16.36;23.57
75489;HTU21D;64069;46.396;48.102;2024-03-29T12:55:43;16.31;23.81
75489;HTU21D;64069;46.396;48.102;2024-03-29T12:58:16;16.29;23.75
75489;HTU21D;64069;46.396;48.102;2024-03-29T13:00:44;16.24;23.83
75489;HTU21D;64069;46.396;48.102;2024-03-29T13:03:10;16.22;23.81
75489;HTU21D;64069;46.396;48.102;2024-03-29T13:05:37;16.14;23.83
75489;HTU21D;64069;46.396;48.102;2024-03-29T13:08:08;16.08;23.91
75489;HTU21D;64069;46.396;48.102;2024-03-29T13:10:36;16.05;23.95
75489;HTU21D;64069;46.396;48.102;2024-03-29T13:13:03;15.97;23.99
75489;HTU21D;64069;46.396;48.102;2024-03-29T13:15:33;15.90;24.09
75489;HTU21D;64069;46.396;48.102;2024-03-29T13:17:59;15.85;24.08
75489;HTU21D;64069;46.396;48.102;2024-03-29T13:20:26;15.78;24.15
75489;HTU21D;64069;46.396;48.102;2024-03-29T13:22:52;15.75;24.30
75489;HTU21D;64069;46.396;48.102;2024-03-29T13:25:21;15.73;24.31
75489;HTU21D;64069;46.396;48.102;2024-03-29T13:27:50;15.68;24.33
75489;HTU21D;64069;46.396;48.102;2024-03-29T13:30:25;15.62;24.33
75489;HTU21D;64069;46.396;48.102;2024-03-29T13:32:52;15.58;24.48
75489;HTU21D;64069;46.396;48.102;2024-03-29T13:35:18;15.55;24.52
75489;HTU21D;64069;46.396;48.102;2024-03-29T13:37:49;15.48;24.40
75489;HTU21D;64069;46.396;48.102;2024-03-29T13:40:16;15.44;24.43
75489;HTU21D;64069;46.396;48.102;2024-03-29T13:42:42;15.38;24.31
75489;HTU21D;64069;46.396;48.102;2024-03-29T13:45:09;15.33;24.49
75489;HTU21D;64069;46.396;48.102;2024-03-29T13:47:39;15.28;24.46
75489;HTU21D;64069;46.396;48.102;2024-03-29T13:50:09;15.22;24.43
75489;HTU21D;64069;46.396;48.102;2024-03-29T13:52:36;15.17;24.36
75489;HTU21D;64069;46.396;48.102;2024-03-29T13:55:03;15.10;24.36
75489;HTU21D;64069;46.396;48.102;2024-03-29T13:57:29;14.99;24.43
75489;HTU21D;64069;46.396;48.102;2024-03-29T13:59:57;14.88;24.62
75489;HTU21D;64069;46.396;48.102;2024-03-29T14:02:24;14.78;24.65
75489;HTU21D;64069;46.396;48.102;2024-03-29T14:04:53;14.68;24.85
75489;HTU21D;64069;46.396;48.102;2024-03-29T14:07:20;14.57;24.85
75489;HTU21D;64069;46.396;48.102;2024-03-29T14:09:46;14.45;24.99
75489;HTU21D;64069;46.396;48.102;2024-03-29T14:12:13;14.34;25.11
75489;HTU21D;64069;46.396;48.102;2024-03-29T14:14:40;14.22;25.40
75489;HTU21D;64069;46.396;48.102;2024-03-29T14:17:10;14.09;25.61
75489;HTU21D;64069;46.396;48.102;2024-03-29T14:19:36;14.00;25.75
75489;HTU21D;64069;46.396;48.102;2024-03-29T14:22:03;13.91;25.82
75489;HTU21D;64069;46.396;48.102;2024-03-29T14:24:30;13.84;25.94
75489;HTU21D;64069;46.396;48.102;2024-03-29T14:26:58;13.76;26.26
75489;HTU21D;64069;46.396;48.102;2024-03-29T14:29:24;13.68;27.41
75489;HTU21D;64069;46.396;48.102;2024-03-29T14:31:51;13.58;29.04
75489;HTU21D;64069;46.396;48.102;2024-03-29T14:34:19;13.44;29.83
75489;HTU21D;64069;46.396;48.102;2024-03-29T14:36:45;13.30;30.61
75489;HTU21D;64069;46.396;48.102;2024-03-29T14:39:11;13.16;31.33
75489;HTU21D;64069;46.396;48.102;2024-03-29T14:41:41;12.99;31.96
75489;HTU21D;64069;46.396;48.102;2024-03-29T14:44:09;12.84;32.50
75489;HTU21D;64069;46.396;48.102;2024-03-29T14:46:35;12.69;32.86
75489;HTU21D;64069;46.396;48.102;2024-03-29T14:49:04;12.55;33.38
75489;HTU21D;64069;46.396;48.102;2024-03-29T14:51:33;12.41;33.68
75489;HTU21D;64069;46.396;48.102;2024-03-29T14:53:59;12.27;33.88
75489;HTU21D;64069;46.396;48.102;2024-03-29T14:56:25;12.13;34.18
75489;HTU21D;64069;46.396;48.102;2024-03-29T14:58:51;12.01;34.62
75489;HTU21D;64069;46.396;48.102;2024-03-29T15:01:17;11.91;34.96
75489;HTU21D;64069;46.396;48.102;2024-03-29T15:03:43;11.81;35.22
75489;HTU21D;64069;46.396;48.102;2024-03-29T15:06:11;11.70;35.47
75489;HTU21D;64069;46.396;48.102;2024-03-29T15:08:39;11.60;35.69
75489;HTU21D;64069;46.396;48.102;2024-03-29T15:11:05;11.48;35.84
75489;HTU21D;64069;46.396;48.102;2024-03-29T15:13:32;11.38;36.32
75489;HTU21D;64069;46.396;48.102;2024-03-29T15:16:02;11.26;36.52